Flight Track Log - Related Links

Times and Time Zones

All times are in EDT time to prevent confusion due to time zone crossing. See the UPS1122 flight status page for this flight to view local times or setup timezone preferences in your user account.

Time Position Orientation Groundspeed Altitude Reporting Facility
EDT Latitude Longitude Course Direction KTS MPH feet Rate Location/Type
Tue 03:48:02 AM 39.8681 -75.2364 77° East 138 159 1,600  Level FAA TRACON SMA TRACON (SMA)
Tue 03:48:23 AM 39.8714 -75.2169 77° East 169 194 2,300 2,850 Climbing FAA TRACON SMA TRACON (SMA)
Tue 03:48:42 AM 39.8758 -75.1900 78° East 196 226 3,500 2,769 Climbing FAA TRACON SMA TRACON (SMA)
Tue 03:49:02 AM 39.8728 -75.1672 100° East 220 253 4,100 1,800 Climbing FAA TRACON SMA TRACON (SMA)
Tue 03:49:22 AM 39.8672 -75.1394 105° East 252 290 4,700 1,800 Climbing FAA TRACON SMA TRACON (SMA)
Tue 03:49:42 AM 39.8617 -75.1067 102° East 266 306 5,300 2,550 Climbing FAA TRACON SMA TRACON (SMA)
Tue 03:50:02 AM 39.8553 -75.0753 105° East 281 323 6,400 3,150 Climbing FAA TRACON SMA TRACON (SMA)
Tue 03:50:22 AM 39.8503 -75.0453 102° East 285 328 7,400 3,450 Climbing FAA TRACON SMA TRACON (SMA)
Tue 03:50:42 AM 39.8456 -75.0128 101° East 284 327 8,700 3,900 Climbing FAA TRACON SMA TRACON (SMA)
Tue 03:51:02 AM 39.8397 -74.9744 101° East 284 327 10,000 2,400 Climbing FAA TRACON SMA TRACON (SMA)
Tue 03:51:22 AM 39.8347 -74.9436 102° East 288 331 10,300 878 Climbing FAA TRACON SMA TRACON (SMA)
Tue 03:51:43 AM 39.8264 -74.8967 103° East 340 391 10,600 1,800 Climbing FAA TRACON SMA TRACON (SMA)
Tue 03:52:02 AM 39.8200 -74.8589 102° East 350 403 11,500 1,846 Climbing FAA TRACON SMA TRACON (SMA)
Tue 03:52:22 AM 39.8142 -74.8233 102° East 352 405 11,800 732 Climbing FAA TRACON SMA TRACON (SMA)
Tue 03:52:43 AM 39.8050 -74.7722 103° East 356 410 12,000 750 Climbing FAA TRACON SMA TRACON (SMA)
Tue 03:53:02 AM 39.8028 -74.7322 94° East 363 418 12,300 1,692 Climbing FAA TRACON SMA TRACON (SMA)
Tue 03:53:22 AM 39.8142 -74.6964 68° East 376 433 13,100 2,550 Climbing FAA TRACON SMA TRACON (SMA)
Tue 03:53:42 AM 39.8425 -74.6606 44° Northeast 369 425 14,000 2,400 Climbing FAA TRACON SMA TRACON (SMA)
Tue 03:54:02 AM 39.8675 -74.6358 37° Northeast 380 437 14,700 2,250 Climbing FAA TRACON SMA TRACON (SMA)
Tue 03:54:22 AM 39.8950 -74.6100 36° Northeast 379 436 15,500 2,850 Climbing FAA TRACON SMA TRACON (SMA)
Tue 03:54:42 AM 39.9264 -74.5811 35° Northeast 384 442 16,600 2,927 Climbing FAA TRACON SMA TRACON (SMA)
Tue 03:55:03 AM 39.9556 -74.5553 34° Northeast 388 447 17,500 2,100 Climbing FAA TRACON SMA TRACON (SMA)
Tue 03:55:22 AM 39.9867 -74.5258 36° Northeast 401 461 18,000 500 Climbing FAA TRACON SMA TRACON (SMA)
Tue 03:56:03 AM 39.9867 -74.5258 217° Southwest 401 461 18,000 2,238 Level FAA TRACON SMA TRACON (SMA)
Tue 03:57:28 AM 40.1758 -74.3514 35° Northeast 412 474 22,700 2,098 Climbing New York Center
Tue 03:58:26 AM 40.2767 -74.2614 34° Northeast 431 496 23,000 153 Climbing New York Center
Tue 03:59:26 AM 40.3794 -74.1658 35° Northeast 442 509 23,000  Level New York Center
Tue 04:00:28 AM 40.4819 -74.0753 34° Northeast 442 509 23,000  Level New York Center
Tue 04:01:26 AM 40.5806 -73.9789 37° Northeast 442 509 23,000  Level New York Center
Tue 04:03:51 AM 40.8381 -73.7458 34° Northeast 449 517 23,000  Level Boston Center
Tue 04:04:51 AM 40.9286 -73.6572 36° Northeast 449 517 23,000  Level Boston Center
Tue 04:05:51 AM 41.0422 -73.5547 34° Northeast 449 517 23,000 -500 Level Boston Center
Tue 04:06:51 AM 41.1453 -73.4544 36° Northeast 449 517 22,000 -1,650 Descending Boston Center
Tue 04:07:51 AM 41.2358 -73.3675 36° Northeast 454 522 19,700 -2,750 Descending Boston Center
Tue 04:08:51 AM 41.3469 -73.2614 36° Northeast 454 522 16,500 -2,850 Descending Boston Center
Tue 04:09:51 AM 41.4414 -73.1711 36° Northeast 440 506 14,000 -3,150 Descending Boston Center
Tue 04:10:51 AM 41.5317 -73.0833 36° Northeast 408 470 10,200 -2,300 Descending Boston Center
Tue 04:11:51 AM 41.6131 -73.0425 21° North 345 397 9,400 -1,400 Descending Boston Center
Tue 04:12:51 AM 41.6883 -73.0156 15° North 276 318 7,400 -1,700 Descending Boston Center
Tue 04:13:51 AM 41.7364 -72.9603 41° Northeast 235 270 6,000 -1,450 Descending Boston Center
Tue 04:14:51 AM 41.7825 -72.8967 46° Northeast 230 265 4,500 -1,300 Descending Boston Center
Tue 04:15:51 AM 41.8225 -72.8439 45° Northeast 214 246 3,400 -1,000 Descending Boston Center
Tue 04:16:51 AM 41.8581 -72.7997 43° Northeast 188 216 2,500 -800 Descending Boston Center
Tue 04:17:51 AM 41.8811 -72.7692 45° Northeast 150 173 1,800 -650 Descending Boston Center
Tue 04:18:51 AM 41.9019 -72.7386 48° Northeast 117 135 1,200 -650 Descending Boston Center
Tue 04:19:51 AM 41.9228 -72.7108 45° Northeast 106 122 500 -700 Descending Boston Center
Tue 04:24:00 AM 41.9333 -72.6833 48° Northeast  Level FlightAware Approximate
Tue 04:31:00 AM 41.9392 -72.6834 48° Northeast  Level Estimated
Tue 04:32:00 AM 41.9333 -72.6833 48° Northeast  Level FlightAware Approximate
Tue 04:33:00 AM 41.9392 -72.6834 48° Northeast  Level Estimated

Login

Don't have an account? Register now (free) for customized features, flight alerts, and more!